Impacts METAR Board
IDs:

KMEM - Memphis Intl, TN, US

Updated at: 2000 UTC 16 Aug 2018
Potential Impact None Slight Moderate High
Time 16/08Z 16/09Z 16/10Z 16/11Z 16/12Z 16/13Z 16/14Z 16/15Z 16/16Z 16/17Z 16/18Z 16/19Z 16/20Z
Temp82 82 81 81 80 80 81 81 82 84 86 90 94
Dewpt72 71 71 72 72 73 74 75 75 76 77 78 77
Altim29.96 29.98 29.98 29.99 30.02 30.03 30.04 30.07 30.07 30.07 30.06 30.02 30.00
VIS10 10 10 10 10 10 10 10 10 10 10 10 10
CIG170 160 110 110 110 190 180 100 80 90 250 250 100
CoverOVCOVCOVCOVCOVCOVCOVCOVCOVCBKNBKNBKNBKN
FltCatVFRVFRVFRVFRVFRVFRVFRVFRVFRVFRVFRVFRVFR
WX--------------------------
WDir200200200170200210200280170140190210250
WSpd9 9 6 9 8 9 7 5 3 4 7 7 9
WGst-- -- -- -- -- -- -- -- -- -- -- -- --
Raw hourly METARs
KMEM 160754Z 20009KT 10SM OVC170 28/22 A2996 RMK AO2 SLP141 T02780222
KMEM 160854Z 20009KT 10SM BKN160 OVC250 28/22 A2998 RMK AO2 SLP147 T02780217 53003
KMEM 160954Z 20006KT 10SM BKN110 BKN170 OVC250 27/22 A2998 RMK AO2 SLP147 T02720217
KMEM 161054Z 17009KT 10SM BKN110 OVC180 27/22 A2999 RMK AO2 SLP152 OCNL LTGIC DSNT N CB DSNT N MOV E T02720222
KMEM 161154Z 20008KT 10SM BKN110 BKN190 OVC250 27/22 A3002 RMK AO2 LTG DSNT N SLP159 CB DSNT N-NE MOV E T02670222 10283 20267 53012
KMEM 161254Z 21009KT 10SM SCT110 BKN190 OVC250 27/23 A3003 RMK AO2 LTG DSNT NW-NE SLP164 CB DSNT NW-NE MOV E T02670228
KMEM 161354Z 20007KT 10SM SCT095 BKN180 OVC250 27/23 A3004 RMK AO2 LTG DSNT NW-NE SLP170 CB DSNT NW-NE T02720233
KMEM 161454Z 28005KT 10SM SCT060 BKN100 BKN150 OVC250 27/24 A3007 RMK AO2 LTG DSNT NW-E SLP178 T02720239 53018
KMEM 161554Z 17003KT 10SM FEW022 SCT060 BKN080 OVC250 28/24 A3007 RMK AO2 LTG DSNT N AND NE SLP179 T02780239
KMEM 161654Z 14004KT 10SM FEW060 BKN090 BKN110 BKN250 29/24 A3007 RMK AO2 LTG DSNT NE SLP178 T02890244
KMEM 161754Z 19007KT 10SM FEW060 SCT100 BKN250 30/25 A3006 RMK AO2 SLP174 T03000250 10300 20267 58003
KMEM 161854Z 21007KT 10SM FEW035 SCT100 BKN250 32/26 A3002 RMK AO2 SLP161 T03220256
KMEM 161954Z 25009KT 10SM SCT040 BKN100 BKN250 34/25 A3000 RMK AO2 SLP153 T03440250



Page loaded:  20:19 UTC  |   01:19 PM Pacific  |   02:19 PM Mountain  |   03:19 PM Central  |   04:19 PM Eastern

 

ADVISORIES

FORECASTS

FORECASTS

OBSERVATIONS

USER TOOLS

ABOUT US